Aérodrome :
LOGIN :

S'inscrire | Disclaimer

   EN    FR    IT 

 










Légende :    VFR   VFR Marginal   IFR   IFR Intensif   IFR Très Intensif
Visi : 
Plafond : 
>= 8 km
>= 3000ft
5 à 8 km
1000 à 3000 ft
1500m à 5 km
500 à 1000 ft
800 à 1500m
200 à 500 ft
< 800m
< 200 ft
Symboles :   Orages  Brouillard  Fortes neiges  Fortes précipitations  Vent > 20 kt
SIGMETs :   Divers  Orages  Givrage  Turbulence  Onde Orograph.  Cendres Volcan.






- Altitude de l'aérodrome : 935 ft


EBFS - Florennes

DERNIER METAR :
  • 172055Z AUTO 25019G31KT 9999 SCT018/// OVC021/// 06/02 Q1019 WHT

METARs EXPIRÉS :
  • 172025Z 25020G30KT 9999 FEW018 SCT022 BKN028 06/02 Q1018 WHT WHT TEMPO GRN
  • 171955Z 25020KT 9999 FEW018 SCT022 BKN028 06/03 Q1017 WHT WHT TEMPO GRN
  • 171949Z 24021KT 9999 FEW018 SCT022 BKN028 06/03 Q1018 WHT WHT TEMPO GRN
  • 171925Z 25019KT 9999 FEW018 BKN025 06/03 Q1017 BLU BLU TEMPO GRN
  • 171855Z 25020KT 9999 FEW018 BKN025 07/03 Q1017 BLU BLU TEMPO GRN
  • 171825Z 24021KT 9999 FEW018 BKN025 07/02 Q1016 BLU BLU TEMPO GRN

TAF TAF EBFS
Valide du 17 à 19h jusqu'au 18 à 07h UTC


171541Z 1719/1807 23018G30KT 9999 FEW025 SCT030
TEMPO 1719/1800 23020G35KT 3500 SHRA SHRAGS SCT008 SCT015TCU BKN020
PROB40
TEMPO 1719/1800 23020G40KT
TEMPO 1800/1807 4000 SHRA FEW007 BKN010 SCT012TCU



MET'MAP, la Météo Aéronautique d'un coup d'oeil ! - Copyright ORBIFLY Décembre 2007 - Disclaimer

ORBIFLY MET'MAP TEAM :

Programmation & Développement : Alexandra Zaïnal
Sur une idée originale de : Baudouin d'Aumeries
Assistance à la programmation : Marc-Olivier Méhu
Soutien technique & logistique : Manuel Goepfert

Contact : metmap@orbifly.com




SOURCES & CREDITS :

   NOAA